sensor_id;sensor_type;location;lat;lon;timestamp;P1;durP1;ratioP1;P2;durP2;ratioP2
76373;SDS011;65197;50.164;8.012;2023-05-10T00:00:11;3.40;;;2.33;;
76373;SDS011;65197;50.164;8.012;2023-05-10T00:02:37;3.35;;;2.03;;
76373;SDS011;65197;50.164;8.012;2023-05-10T00:05:02;2.53;;;1.98;;
76373;SDS011;65197;50.164;8.012;2023-05-10T00:07:28;3.05;;;1.98;;
76373;SDS011;65197;50.164;8.012;2023-05-10T00:09:53;3.35;;;2.13;;
76373;SDS011;65197;50.164;8.012;2023-05-10T00:12:19;4.25;;;2.30;;
76373;SDS011;65197;50.164;8.012;2023-05-10T00:14:44;3.78;;;2.10;;
76373;SDS011;65197;50.164;8.012;2023-05-10T00:17:10;9.52;;;3.03;;
76373;SDS011;65197;50.164;8.012;2023-05-10T00:19:35;3.15;;;2.28;;
76373;SDS011;65197;50.164;8.012;2023-05-10T00:22:01;8.52;;;2.75;;
76373;SDS011;65197;50.164;8.012;2023-05-10T00:24:26;4.88;;;2.70;;
76373;SDS011;65197;50.164;8.012;2023-05-10T00:26:51;4.18;;;2.53;;
76373;SDS011;65197;50.164;8.012;2023-05-10T00:29:18;3.88;;;2.75;;
76373;SDS011;65197;50.164;8.012;2023-05-10T00:31:44;3.70;;;2.63;;
76373;SDS011;65197;50.164;8.012;2023-05-10T00:34:09;5.70;;;2.70;;
76373;SDS011;65197;50.164;8.012;2023-05-10T00:36:35;3.88;;;2.72;;
76373;SDS011;65197;50.164;8.012;2023-05-10T00:39:00;3.13;;;2.33;;
76373;SDS011;65197;50.164;8.012;2023-05-10T00:41:26;4.10;;;2.45;;
76373;SDS011;65197;50.164;8.012;2023-05-10T00:43:51;3.67;;;2.75;;
76373;SDS011;65197;50.164;8.012;2023-05-10T00:46:16;4.38;;;2.65;;
76373;SDS011;65197;50.164;8.012;2023-05-10T00:48:42;3.72;;;2.40;;
76373;SDS011;65197;50.164;8.012;2023-05-10T00:51:08;3.55;;;2.47;;
76373;SDS011;65197;50.164;8.012;2023-05-10T00:53:34;5.18;;;2.50;;
76373;SDS011;65197;50.164;8.012;2023-05-10T00:56:00;4.13;;;2.70;;
76373;SDS011;65197;50.164;8.012;2023-05-10T00:58:27;3.75;;;2.88;;
76373;SDS011;65197;50.164;8.012;2023-05-10T01:00:54;4.10;;;2.78;;
76373;SDS011;65197;50.164;8.012;2023-05-10T01:03:21;3.55;;;2.55;;
76373;SDS011;65197;50.164;8.012;2023-05-10T01:05:46;5.10;;;2.83;;
76373;SDS011;65197;50.164;8.012;2023-05-10T01:08:11;4.70;;;2.83;;
76373;SDS011;65197;50.164;8.012;2023-05-10T01:10:37;4.10;;;2.75;;
76373;SDS011;65197;50.164;8.012;2023-05-10T01:13:02;4.60;;;3.35;;
76373;SDS011;65197;50.164;8.012;2023-05-10T01:15:28;4.00;;;2.70;;
76373;SDS011;65197;50.164;8.012;2023-05-10T01:17:55;4.07;;;2.75;;
76373;SDS011;65197;50.164;8.012;2023-05-10T01:20:21;4.72;;;2.90;;
76373;SDS011;65197;50.164;8.012;2023-05-10T01:22:59;4.20;;;2.80;;
76373;SDS011;65197;50.164;8.012;2023-05-10T01:31:30;5.05;;;3.38;;
76373;SDS011;65197;50.164;8.012;2023-05-10T01:34:07;4.80;;;3.58;;
76373;SDS011;65197;50.164;8.012;2023-05-10T01:36:43;5.75;;;4.00;;
76373;SDS011;65197;50.164;8.012;2023-05-10T01:42:07;6.65;;;3.90;;
76373;SDS011;65197;50.164;8.012;2023-05-10T01:47:08;6.82;;;4.13;;
76373;SDS011;65197;50.164;8.012;2023-05-10T01:50:10;6.28;;;3.78;;
76373;SDS011;65197;50.164;8.012;2023-05-10T01:55:08;7.80;;;4.05;;
76373;SDS011;65197;50.164;8.012;2023-05-10T01:57:36;6.00;;;4.28;;
76373;SDS011;65197;50.164;8.012;2023-05-10T02:00:08;6.50;;;4.43;;
76373;SDS011;65197;50.164;8.012;2023-05-10T02:02:36;12.82;;;5.13;;
76373;SDS011;65197;50.164;8.012;2023-05-10T02:05:03;6.78;;;4.32;;
76373;SDS011;65197;50.164;8.012;2023-05-10T02:07:30;6.35;;;4.20;;
76373;SDS011;65197;50.164;8.012;2023-05-10T02:09:58;7.53;;;4.72;;
76373;SDS011;65197;50.164;8.012;2023-05-10T02:12:25;7.72;;;5.13;;
76373;SDS011;65197;50.164;8.012;2023-05-10T02:14:52;7.57;;;4.80;;
76373;SDS011;65197;50.164;8.012;2023-05-10T02:17:18;7.97;;;5.05;;
76373;SDS011;65197;50.164;8.012;2023-05-10T02:19:46;8.38;;;4.80;;
76373;SDS011;65197;50.164;8.012;2023-05-10T02:22:12;8.45;;;4.82;;
76373;SDS011;65197;50.164;8.012;2023-05-10T02:24:40;8.57;;;4.78;;
76373;SDS011;65197;50.164;8.012;2023-05-10T02:27:06;8.43;;;4.35;;
76373;SDS011;65197;50.164;8.012;2023-05-10T02:29:32;8.02;;;5.15;;
76373;SDS011;65197;50.164;8.012;2023-05-10T02:31:58;8.60;;;4.55;;
76373;SDS011;65197;50.164;8.012;2023-05-10T02:34:27;7.50;;;4.45;;
76373;SDS011;65197;50.164;8.012;2023-05-10T02:36:53;7.72;;;5.03;;
76373;SDS011;65197;50.164;8.012;2023-05-10T02:39:21;8.30;;;5.30;;
76373;SDS011;65197;50.164;8.012;2023-05-10T02:41:47;8.68;;;4.53;;
76373;SDS011;65197;50.164;8.012;2023-05-10T02:44:15;7.47;;;4.75;;
76373;SDS011;65197;50.164;8.012;2023-05-10T02:46:43;8.02;;;4.55;;
76373;SDS011;65197;50.164;8.012;2023-05-10T02:49:09;7.80;;;5.18;;
76373;SDS011;65197;50.164;8.012;2023-05-10T02:51:35;8.38;;;4.57;;
76373;SDS011;65197;50.164;8.012;2023-05-10T02:54:15;7.65;;;4.55;;
76373;SDS011;65197;50.164;8.012;2023-05-10T02:56:48;7.20;;;4.82;;
76373;SDS011;65197;50.164;8.012;2023-05-10T02:59:25;6.70;;;4.10;;
76373;SDS011;65197;50.164;8.012;2023-05-10T03:01:51;7.80;;;4.97;;
76373;SDS011;65197;50.164;8.012;2023-05-10T03:04:17;7.72;;;4.63;;
76373;SDS011;65197;50.164;8.012;2023-05-10T03:06:42;8.82;;;4.35;;
76373;SDS011;65197;50.164;8.012;2023-05-10T03:09:08;8.20;;;4.60;;
76373;SDS011;65197;50.164;8.012;2023-05-10T03:11:39;7.60;;;4.75;;
76373;SDS011;65197;50.164;8.012;2023-05-10T03:16:52;8.70;;;4.82;;
76373;SDS011;65197;50.164;8.012;2023-05-10T03:19:37;9.73;;;5.53;;
76373;SDS011;65197;50.164;8.012;2023-05-10T03:22:10;10.57;;;5.45;;
76373;SDS011;65197;50.164;8.012;2023-05-10T03:24:38;11.15;;;5.20;;
76373;SDS011;65197;50.164;8.012;2023-05-10T03:27:06;9.38;;;5.18;;
76373;SDS011;65197;50.164;8.012;2023-05-10T03:29:33;12.07;;;5.85;;
76373;SDS011;65197;50.164;8.012;2023-05-10T03:31:58;9.75;;;5.45;;
76373;SDS011;65197;50.164;8.012;2023-05-10T03:34:24;9.63;;;5.75;;
76373;SDS011;65197;50.164;8.012;2023-05-10T03:36:50;10.65;;;5.47;;
76373;SDS011;65197;50.164;8.012;2023-05-10T03:39:16;9.68;;;5.65;;
76373;SDS011;65197;50.164;8.012;2023-05-10T03:41:41;12.27;;;6.10;;
76373;SDS011;65197;50.164;8.012;2023-05-10T03:44:07;8.93;;;5.47;;
76373;SDS011;65197;50.164;8.012;2023-05-10T03:46:32;9.85;;;5.75;;
76373;SDS011;65197;50.164;8.012;2023-05-10T03:48:57;8.82;;;5.13;;
76373;SDS011;65197;50.164;8.012;2023-05-10T03:51:23;7.30;;;4.93;;
76373;SDS011;65197;50.164;8.012;2023-05-10T03:53:52;8.13;;;4.68;;
76373;SDS011;65197;50.164;8.012;2023-05-10T03:56:18;7.43;;;4.45;;
76373;SDS011;65197;50.164;8.012;2023-05-10T03:58:43;7.43;;;4.80;;
76373;SDS011;65197;50.164;8.012;2023-05-10T04:01:09;8.00;;;4.63;;
76373;SDS011;65197;50.164;8.012;2023-05-10T04:03:35;9.20;;;5.88;;
76373;SDS011;65197;50.164;8.012;2023-05-10T04:06:01;10.65;;;5.50;;
76373;SDS011;65197;50.164;8.012;2023-05-10T04:08:27;10.13;;;5.65;;
76373;SDS011;65197;50.164;8.012;2023-05-10T04:10:53;11.32;;;5.20;;
76373;SDS011;65197;50.164;8.012;2023-05-10T04:13:18;10.18;;;5.50;;
76373;SDS011;65197;50.164;8.012;2023-05-10T04:15:43;11.07;;;5.55;;
76373;SDS011;65197;50.164;8.012;2023-05-10T04:18:09;10.43;;;5.55;;
76373;SDS011;65197;50.164;8.012;2023-05-10T04:20:35;26.63;;;7.03;;
76373;SDS011;65197;50.164;8.012;2023-05-10T04:23:00;14.95;;;6.43;;
76373;SDS011;65197;50.164;8.012;2023-05-10T04:25:25;11.23;;;6.45;;
76373;SDS011;65197;50.164;8.012;2023-05-10T04:27:51;10.38;;;5.82;;
76373;SDS011;65197;50.164;8.012;2023-05-10T04:30:16;33.70;;;7.68;;
76373;SDS011;65197;50.164;8.012;2023-05-10T04:32:42;11.95;;;6.70;;
76373;SDS011;65197;50.164;8.012;2023-05-10T04:35:07;14.38;;;6.25;;
76373;SDS011;65197;50.164;8.012;2023-05-10T04:37:34;12.13;;;6.68;;
76373;SDS011;65197;50.164;8.012;2023-05-10T04:40:01;11.57;;;6.45;;
76373;SDS011;65197;50.164;8.012;2023-05-10T04:42:27;11.45;;;7.20;;
76373;SDS011;65197;50.164;8.012;2023-05-10T04:44:53;11.15;;;6.75;;
76373;SDS011;65197;50.164;8.012;2023-05-10T04:47:18;10.40;;;5.88;;
76373;SDS011;65197;50.164;8.012;2023-05-10T04:49:44;13.20;;;6.40;;
76373;SDS011;65197;50.164;8.012;2023-05-10T04:52:09;11.45;;;5.93;;
76373;SDS011;65197;50.164;8.012;2023-05-10T04:54:35;9.20;;;5.90;;
76373;SDS011;65197;50.164;8.012;2023-05-10T04:57:00;10.93;;;6.10;;
76373;SDS011;65197;50.164;8.012;2023-05-10T04:59:25;11.60;;;6.30;;
76373;SDS011;65197;50.164;8.012;2023-05-10T05:01:51;10.98;;;5.97;;
76373;SDS011;65197;50.164;8.012;2023-05-10T05:04:16;13.13;;;6.32;;
76373;SDS011;65197;50.164;8.012;2023-05-10T05:06:42;11.57;;;5.68;;
76373;SDS011;65197;50.164;8.012;2023-05-10T05:09:08;10.95;;;5.60;;
76373;SDS011;65197;50.164;8.012;2023-05-10T05:11:35;8.68;;;5.07;;
76373;SDS011;65197;50.164;8.012;2023-05-10T05:14:00;8.80;;;4.90;;
76373;SDS011;65197;50.164;8.012;2023-05-10T05:16:26;9.35;;;5.28;;
76373;SDS011;65197;50.164;8.012;2023-05-10T05:18:51;8.35;;;4.82;;
76373;SDS011;65197;50.164;8.012;2023-05-10T05:21:18;9.63;;;5.65;;
76373;SDS011;65197;50.164;8.012;2023-05-10T05:23:44;12.05;;;5.95;;
76373;SDS011;65197;50.164;8.012;2023-05-10T05:26:10;11.35;;;5.70;;
76373;SDS011;65197;50.164;8.012;2023-05-10T05:28:36;12.27;;;6.13;;
76373;SDS011;65197;50.164;8.012;2023-05-10T05:31:05;11.13;;;6.22;;
76373;SDS011;65197;50.164;8.012;2023-05-10T05:33:32;13.55;;;6.55;;
76373;SDS011;65197;50.164;8.012;2023-05-10T05:36:00;9.68;;;6.05;;
76373;SDS011;65197;50.164;8.012;2023-05-10T05:38:26;13.20;;;6.43;;
76373;SDS011;65197;50.164;8.012;2023-05-10T05:40:51;10.45;;;5.47;;
76373;SDS011;65197;50.164;8.012;2023-05-10T05:43:16;9.63;;;5.60;;
76373;SDS011;65197;50.164;8.012;2023-05-10T05:45:42;8.38;;;5.50;;
76373;SDS011;65197;50.164;8.012;2023-05-10T05:48:07;9.60;;;5.07;;
76373;SDS011;65197;50.164;8.012;2023-05-10T05:50:32;8.25;;;4.60;;
76373;SDS011;65197;50.164;8.012;2023-05-10T05:52:58;9.73;;;5.53;;
76373;SDS011;65197;50.164;8.012;2023-05-10T05:55:23;10.75;;;4.72;;
76373;SDS011;65197;50.164;8.012;2023-05-10T05:57:50;6.35;;;4.40;;
76373;SDS011;65197;50.164;8.012;2023-05-10T06:00:16;8.05;;;4.97;;
76373;SDS011;65197;50.164;8.012;2023-05-10T06:02:41;9.30;;;5.28;;
76373;SDS011;65197;50.164;8.012;2023-05-10T06:05:07;10.00;;;5.40;;
76373;SDS011;65197;50.164;8.012;2023-05-10T06:07:33;9.35;;;5.28;;
76373;SDS011;65197;50.164;8.012;2023-05-10T06:09:58;9.20;;;5.00;;
76373;SDS011;65197;50.164;8.012;2023-05-10T06:12:24;8.82;;;5.38;;
76373;SDS011;65197;50.164;8.012;2023-05-10T06:14:49;7.25;;;4.85;;
76373;SDS011;65197;50.164;8.012;2023-05-10T06:17:15;13.40;;;4.75;;
76373;SDS011;65197;50.164;8.012;2023-05-10T06:19:40;7.32;;;5.00;;
76373;SDS011;65197;50.164;8.012;2023-05-10T06:22:05;7.50;;;4.55;;
76373;SDS011;65197;50.164;8.012;2023-05-10T06:24:31;6.95;;;3.83;;
76373;SDS011;65197;50.164;8.012;2023-05-10T06:26:56;6.30;;;4.03;;
76373;SDS011;65197;50.164;8.012;2023-05-10T06:29:25;7.20;;;3.67;;
76373;SDS011;65197;50.164;8.012;2023-05-10T06:31:50;5.35;;;4.15;;
76373;SDS011;65197;50.164;8.012;2023-05-10T06:34:15;7.38;;;4.18;;
76373;SDS011;65197;50.164;8.012;2023-05-10T06:36:41;6.97;;;3.83;;
76373;SDS011;65197;50.164;8.012;2023-05-10T06:39:06;9.02;;;4.10;;
76373;SDS011;65197;50.164;8.012;2023-05-10T06:41:32;6.68;;;4.10;;
76373;SDS011;65197;50.164;8.012;2023-05-10T06:43:57;5.53;;;3.33;;
76373;SDS011;65197;50.164;8.012;2023-05-10T06:46:23;7.78;;;3.95;;
76373;SDS011;65197;50.164;8.012;2023-05-10T06:48:48;6.68;;;3.70;;
76373;SDS011;65197;50.164;8.012;2023-05-10T06:51:13;9.30;;;5.78;;
76373;SDS011;65197;50.164;8.012;2023-05-10T06:53:39;9.05;;;3.63;;
76373;SDS011;65197;50.164;8.012;2023-05-10T06:56:04;6.80;;;4.07;;
76373;SDS011;65197;50.164;8.012;2023-05-10T06:58:30;7.10;;;3.88;;
76373;SDS011;65197;50.164;8.012;2023-05-10T07:01:04;5.20;;;3.67;;
76373;SDS011;65197;50.164;8.012;2023-05-10T07:03:30;6.13;;;3.90;;
76373;SDS011;65197;50.164;8.012;2023-05-10T07:06:05;6.90;;;3.60;;
76373;SDS011;65197;50.164;8.012;2023-05-10T07:08:32;6.25;;;4.00;;
76373;SDS011;65197;50.164;8.012;2023-05-10T07:11:05;8.52;;;4.53;;
76373;SDS011;65197;50.164;8.012;2023-05-10T07:13:32;7.03;;;4.50;;
76373;SDS011;65197;50.164;8.012;2023-05-10T07:15:59;10.10;;;3.75;;
76373;SDS011;65197;50.164;8.012;2023-05-10T07:18:25;6.80;;;3.88;;
76373;SDS011;65197;50.164;8.012;2023-05-10T07:20:51;7.25;;;3.75;;
76373;SDS011;65197;50.164;8.012;2023-05-10T07:23:16;6.05;;;3.65;;
76373;SDS011;65197;50.164;8.012;2023-05-10T07:25:48;6.15;;;3.30;;
76373;SDS011;65197;50.164;8.012;2023-05-10T07:28:16;8.75;;;3.67;;
76373;SDS011;65197;50.164;8.012;2023-05-10T07:30:41;5.60;;;3.35;;
76373;SDS011;65197;50.164;8.012;2023-05-10T07:33:08;7.35;;;3.72;;
76373;SDS011;65197;50.164;8.012;2023-05-10T07:35:34;7.07;;;3.30;;
76373;SDS011;65197;50.164;8.012;2023-05-10T07:38:00;4.95;;;3.72;;
76373;SDS011;65197;50.164;8.012;2023-05-10T07:40:26;11.48;;;4.40;;
76373;SDS011;65197;50.164;8.012;2023-05-10T07:42:51;6.95;;;4.28;;
76373;SDS011;65197;50.164;8.012;2023-05-10T07:45:17;7.20;;;4.07;;
76373;SDS011;65197;50.164;8.012;2023-05-10T07:47:42;8.10;;;4.35;;
76373;SDS011;65197;50.164;8.012;2023-05-10T07:50:08;6.80;;;4.18;;
76373;SDS011;65197;50.164;8.012;2023-05-10T07:52:33;5.40;;;3.72;;
76373;SDS011;65197;50.164;8.012;2023-05-10T07:54:59;7.80;;;3.97;;
76373;SDS011;65197;50.164;8.012;2023-05-10T07:57:24;8.80;;;3.60;;
76373;SDS011;65197;50.164;8.012;2023-05-10T07:59:49;6.45;;;4.30;;
76373;SDS011;65197;50.164;8.012;2023-05-10T08:02:15;8.52;;;3.45;;
76373;SDS011;65197;50.164;8.012;2023-05-10T08:04:40;7.43;;;3.58;;
76373;SDS011;65197;50.164;8.012;2023-05-10T08:07:06;10.07;;;4.38;;
76373;SDS011;65197;50.164;8.012;2023-05-10T08:09:32;7.43;;;3.80;;
76373;SDS011;65197;50.164;8.012;2023-05-10T08:11:57;7.55;;;4.05;;
76373;SDS011;65197;50.164;8.012;2023-05-10T08:14:24;7.43;;;3.72;;
76373;SDS011;65197;50.164;8.012;2023-05-10T08:16:49;8.48;;;4.45;;
76373;SDS011;65197;50.164;8.012;2023-05-10T08:19:15;9.70;;;4.05;;
76373;SDS011;65197;50.164;8.012;2023-05-10T08:21:43;8.05;;;4.32;;
76373;SDS011;65197;50.164;8.012;2023-05-10T08:24:09;11.32;;;4.57;;
76373;SDS011;65197;50.164;8.012;2023-05-10T08:26:35;8.68;;;4.57;;
76373;SDS011;65197;50.164;8.012;2023-05-10T08:29:00;9.50;;;4.10;;
76373;SDS011;65197;50.164;8.012;2023-05-10T08:31:25;7.32;;;4.18;;
76373;SDS011;65197;50.164;8.012;2023-05-10T08:33:51;8.05;;;4.22;;
76373;SDS011;65197;50.164;8.012;2023-05-10T08:36:17;8.40;;;4.22;;
76373;SDS011;65197;50.164;8.012;2023-05-10T08:41:11;8.32;;;3.92;;
76373;SDS011;65197;50.164;8.012;2023-05-10T08:43:38;7.72;;;4.22;;
76373;SDS011;65197;50.164;8.012;2023-05-10T08:46:06;8.27;;;4.30;;
76373;SDS011;65197;50.164;8.012;2023-05-10T08:48:34;6.53;;;4.35;;
76373;SDS011;65197;50.164;8.012;2023-05-10T08:50:59;5.85;;;3.40;;
76373;SDS011;65197;50.164;8.012;2023-05-10T08:53:27;5.47;;;2.85;;
76373;SDS011;65197;50.164;8.012;2023-05-10T08:55:54;4.25;;;2.80;;
76373;SDS011;65197;50.164;8.012;2023-05-10T08:58:20;5.03;;;2.67;;
76373;SDS011;65197;50.164;8.012;2023-05-10T09:00:46;5.82;;;3.45;;
76373;SDS011;65197;50.164;8.012;2023-05-10T09:03:14;3.45;;;2.67;;
76373;SDS011;65197;50.164;8.012;2023-05-10T09:05:40;4.90;;;2.47;;
76373;SDS011;65197;50.164;8.012;2023-05-10T09:08:07;5.72;;;2.85;;
76373;SDS011;65197;50.164;8.012;2023-05-10T09:10:33;6.90;;;2.40;;
76373;SDS011;65197;50.164;8.012;2023-05-10T09:12:59;4.95;;;2.58;;
76373;SDS011;65197;50.164;8.012;2023-05-10T09:15:25;4.75;;;2.63;;
76373;SDS011;65197;50.164;8.012;2023-05-10T09:17:51;3.85;;;2.10;;
76373;SDS011;65197;50.164;8.012;2023-05-10T09:20:16;3.17;;;2.15;;
76373;SDS011;65197;50.164;8.012;2023-05-10T09:22:45;2.53;;;2.08;;
76373;SDS011;65197;50.164;8.012;2023-05-10T09:25:14;3.70;;;2.00;;
76373;SDS011;65197;50.164;8.012;2023-05-10T09:27:41;5.00;;;2.00;;
76373;SDS011;65197;50.164;8.012;2023-05-10T09:30:10;2.40;;;1.67;;
76373;SDS011;65197;50.164;8.012;2023-05-10T09:32:39;2.17;;;1.70;;
76373;SDS011;65197;50.164;8.012;2023-05-10T09:35:07;4.78;;;1.70;;
76373;SDS011;65197;50.164;8.012;2023-05-10T09:37:36;3.42;;;1.60;;
76373;SDS011;65197;50.164;8.012;2023-05-10T09:40:06;2.70;;;1.60;;
76373;SDS011;65197;50.164;8.012;2023-05-10T09:42:33;6.80;;;1.60;;
76373;SDS011;65197;50.164;8.012;2023-05-10T09:45:00;2.95;;;1.33;;
76373;SDS011;65197;50.164;8.012;2023-05-10T09:47:26;2.25;;;1.50;;
76373;SDS011;65197;50.164;8.012;2023-05-10T09:49:52;3.53;;;1.80;;
76373;SDS011;65197;50.164;8.012;2023-05-10T09:52:18;2.40;;;1.50;;
76373;SDS011;65197;50.164;8.012;2023-05-10T09:54:53;2.78;;;1.70;;
76373;SDS011;65197;50.164;8.012;2023-05-10T09:57:23;2.00;;;1.30;;
76373;SDS011;65197;50.164;8.012;2023-05-10T09:59:50;2.65;;;1.60;;
76373;SDS011;65197;50.164;8.012;2023-05-10T10:02:15;2.42;;;1.45;;
76373;SDS011;65197;50.164;8.012;2023-05-10T10:04:41;3.90;;;1.25;;
76373;SDS011;65197;50.164;8.012;2023-05-10T10:07:07;3.47;;;1.50;;
76373;SDS011;65197;50.164;8.012;2023-05-10T10:09:34;5.25;;;2.17;;
76373;SDS011;65197;50.164;8.012;2023-05-10T10:12:02;3.00;;;1.50;;
76373;SDS011;65197;50.164;8.012;2023-05-10T10:16:54;1.50;;;1.00;;
76373;SDS011;65197;50.164;8.012;2023-05-10T10:19:20;1.42;;;0.90;;
76373;SDS011;65197;50.164;8.012;2023-05-10T10:21:47;1.27;;;0.93;;
76373;SDS011;65197;50.164;8.012;2023-05-10T10:24:13;2.17;;;1.27;;
76373;SDS011;65197;50.164;8.012;2023-05-10T10:26:38;2.50;;;1.10;;
76373;SDS011;65197;50.164;8.012;2023-05-10T10:34:53;1.25;;;1.00;;
76373;SDS011;65197;50.164;8.012;2023-05-10T10:37:20;1.48;;;0.90;;
76373;SDS011;65197;50.164;8.012;2023-05-10T10:39:47;2.35;;;1.33;;
76373;SDS011;65197;50.164;8.012;2023-05-10T10:42:13;5.63;;;1.10;;
76373;SDS011;65197;50.164;8.012;2023-05-10T10:44:39;2.90;;;0.93;;
76373;SDS011;65197;50.164;8.012;2023-05-10T10:49:48;1.60;;;0.95;;
76373;SDS011;65197;50.164;8.012;2023-05-10T10:55:11;2.22;;;1.00;;
76373;SDS011;65197;50.164;8.012;2023-05-10T10:57:48;2.00;;;1.20;;
76373;SDS011;65197;50.164;8.012;2023-05-10T11:00:27;8.75;;;1.30;;
76373;SDS011;65197;50.164;8.012;2023-05-10T11:05:48;1.48;;;1.05;;
76373;SDS011;65197;50.164;8.012;2023-05-10T11:10:50;1.30;;;0.95;;
76373;SDS011;65197;50.164;8.012;2023-05-10T11:13:38;1.92;;;0.90;;
76373;SDS011;65197;50.164;8.012;2023-05-10T11:16:18;3.13;;;1.20;;
76373;SDS011;65197;50.164;8.012;2023-05-10T11:18:52;1.92;;;1.38;;
76373;SDS011;65197;50.164;8.012;2023-05-10T11:21:18;2.30;;;0.80;;
76373;SDS011;65197;50.164;8.012;2023-05-10T11:26:30;2.38;;;0.85;;
76373;SDS011;65197;50.164;8.012;2023-05-10T11:28:57;4.53;;;1.15;;
76373;SDS011;65197;50.164;8.012;2023-05-10T11:31:25;1.25;;;0.88;;
76373;SDS011;65197;50.164;8.012;2023-05-10T11:33:52;3.70;;;0.90;;
76373;SDS011;65197;50.164;8.012;2023-05-10T11:36:25;2.83;;;0.93;;
76373;SDS011;65197;50.164;8.012;2023-05-10T11:38:52;1.60;;;0.70;;
76373;SDS011;65197;50.164;8.012;2023-05-10T11:41:18;0.82;;;0.68;;
76373;SDS011;65197;50.164;8.012;2023-05-10T11:43:47;2.88;;;0.90;;
76373;SDS011;65197;50.164;8.012;2023-05-10T11:46:27;3.42;;;1.85;;
76373;SDS011;65197;50.164;8.012;2023-05-10T11:48:54;1.77;;;0.80;;
76373;SDS011;65197;50.164;8.012;2023-05-10T11:51:23;1.80;;;0.77;;
76373;SDS011;65197;50.164;8.012;2023-05-10T11:53:50;2.47;;;0.85;;
76373;SDS011;65197;50.164;8.012;2023-05-10T11:56:18;1.60;;;0.95;;
76373;SDS011;65197;50.164;8.012;2023-05-10T11:58:43;2.83;;;1.00;;
76373;SDS011;65197;50.164;8.012;2023-05-10T12:01:08;0.93;;;0.80;;
76373;SDS011;65197;50.164;8.012;2023-05-10T12:03:35;1.67;;;0.90;;
76373;SDS011;65197;50.164;8.012;2023-05-10T12:06:02;1.67;;;0.80;;
76373;SDS011;65197;50.164;8.012;2023-05-10T12:08:28;2.03;;;1.33;;
76373;SDS011;65197;50.164;8.012;2023-05-10T12:11:03;2.53;;;0.95;;
76373;SDS011;65197;50.164;8.012;2023-05-10T12:13:30;2.92;;;0.98;;
76373;SDS011;65197;50.164;8.012;2023-05-10T12:15:59;1.45;;;0.70;;
76373;SDS011;65197;50.164;8.012;2023-05-10T12:18:24;2.75;;;1.40;;
76373;SDS011;65197;50.164;8.012;2023-05-10T12:20:53;0.95;;;0.85;;
76373;SDS011;65197;50.164;8.012;2023-05-10T12:23:18;1.27;;;0.88;;
76373;SDS011;65197;50.164;8.012;2023-05-10T12:25:44;4.43;;;1.23;;
76373;SDS011;65197;50.164;8.012;2023-05-10T12:28:10;1.20;;;0.70;;
76373;SDS011;65197;50.164;8.012;2023-05-10T12:30:36;2.22;;;1.17;;
76373;SDS011;65197;50.164;8.012;2023-05-10T12:33:08;3.45;;;1.00;;
76373;SDS011;65197;50.164;8.012;2023-05-10T12:35:45;2.08;;;1.30;;
76373;SDS011;65197;50.164;8.012;2023-05-10T12:40:59;4.40;;;1.33;;
76373;SDS011;65197;50.164;8.012;2023-05-10T12:43:26;2.75;;;1.30;;
76373;SDS011;65197;50.164;8.012;2023-05-10T12:45:52;2.65;;;1.50;;
76373;SDS011;65197;50.164;8.012;2023-05-10T12:48:17;3.00;;;1.45;;
76373;SDS011;65197;50.164;8.012;2023-05-10T12:50:43;2.25;;;1.38;;
76373;SDS011;65197;50.164;8.012;2023-05-10T12:53:08;3.75;;;1.33;;
76373;SDS011;65197;50.164;8.012;2023-05-10T12:55:33;3.53;;;1.17;;
76373;SDS011;65197;50.164;8.012;2023-05-10T12:57:59;2.28;;;1.33;;
76373;SDS011;65197;50.164;8.012;2023-05-10T13:00:24;2.65;;;1.63;;
76373;SDS011;65197;50.164;8.012;2023-05-10T13:02:50;2.13;;;1.40;;
76373;SDS011;65197;50.164;8.012;2023-05-10T13:05:15;1.73;;;1.35;;
76373;SDS011;65197;50.164;8.012;2023-05-10T13:07:41;3.65;;;1.33;;
76373;SDS011;65197;50.164;8.012;2023-05-10T13:10:06;2.28;;;1.40;;
76373;SDS011;65197;50.164;8.012;2023-05-10T13:12:32;2.47;;;1.63;;
76373;SDS011;65197;50.164;8.012;2023-05-10T13:14:57;3.25;;;1.48;;
76373;SDS011;65197;50.164;8.012;2023-05-10T13:17:24;1.92;;;1.30;;
76373;SDS011;65197;50.164;8.012;2023-05-10T13:19:50;2.90;;;1.17;;
76373;SDS011;65197;50.164;8.012;2023-05-10T13:22:15;1.90;;;0.90;;
76373;SDS011;65197;50.164;8.012;2023-05-10T13:24:41;1.50;;;1.08;;
76373;SDS011;65197;50.164;8.012;2023-05-10T13:27:06;1.55;;;1.08;;
76373;SDS011;65197;50.164;8.012;2023-05-10T13:29:31;1.73;;;1.30;;
76373;SDS011;65197;50.164;8.012;2023-05-10T13:31:57;3.50;;;1.40;;
76373;SDS011;65197;50.164;8.012;2023-05-10T13:34:22;3.85;;;1.40;;
76373;SDS011;65197;50.164;8.012;2023-05-10T13:36:49;0.98;;;0.80;;
76373;SDS011;65197;50.164;8.012;2023-05-10T13:39:14;1.02;;;0.93;;
76373;SDS011;65197;50.164;8.012;2023-05-10T13:41:40;1.25;;;1.10;;
76373;SDS011;65197;50.164;8.012;2023-05-10T13:44:05;2.90;;;1.20;;
76373;SDS011;65197;50.164;8.012;2023-05-10T13:46:31;3.78;;;1.50;;
76373;SDS011;65197;50.164;8.012;2023-05-10T13:48:56;2.40;;;1.20;;
76373;SDS011;65197;50.164;8.012;2023-05-10T13:51:22;1.98;;;1.05;;
76373;SDS011;65197;50.164;8.012;2023-05-10T13:53:48;5.60;;;1.33;;
76373;SDS011;65197;50.164;8.012;2023-05-10T13:56:13;2.05;;;1.00;;
76373;SDS011;65197;50.164;8.012;2023-05-10T13:58:39;4.95;;;1.30;;
76373;SDS011;65197;50.164;8.012;2023-05-10T14:01:04;4.40;;;1.10;;
76373;SDS011;65197;50.164;8.012;2023-05-10T14:03:30;1.15;;;0.98;;
76373;SDS011;65197;50.164;8.012;2023-05-10T14:05:55;2.13;;;1.20;;
76373;SDS011;65197;50.164;8.012;2023-05-10T14:08:21;2.85;;;1.00;;
76373;SDS011;65197;50.164;8.012;2023-05-10T14:10:47;3.58;;;1.30;;
76373;SDS011;65197;50.164;8.012;2023-05-10T14:13:13;1.90;;;1.10;;
76373;SDS011;65197;50.164;8.012;2023-05-10T14:15:39;2.95;;;1.35;;
76373;SDS011;65197;50.164;8.012;2023-05-10T14:18:04;2.88;;;1.38;;
76373;SDS011;65197;50.164;8.012;2023-05-10T14:20:29;2.72;;;1.50;;
76373;SDS011;65197;50.164;8.012;2023-05-10T14:22:57;2.70;;;1.48;;
76373;SDS011;65197;50.164;8.012;2023-05-10T14:25:22;2.45;;;1.40;;
76373;SDS011;65197;50.164;8.012;2023-05-10T14:27:48;8.70;;;1.70;;
76373;SDS011;65197;50.164;8.012;2023-05-10T14:30:13;1.50;;;1.30;;
76373;SDS011;65197;50.164;8.012;2023-05-10T14:32:39;2.67;;;1.35;;
76373;SDS011;65197;50.164;8.012;2023-05-10T14:35:05;4.13;;;1.40;;
76373;SDS011;65197;50.164;8.012;2023-05-10T14:37:31;2.20;;;1.25;;
76373;SDS011;65197;50.164;8.012;2023-05-10T14:39:57;1.98;;;1.40;;
76373;SDS011;65197;50.164;8.012;2023-05-10T14:42:22;3.22;;;1.35;;
76373;SDS011;65197;50.164;8.012;2023-05-10T14:44:48;2.40;;;1.30;;
76373;SDS011;65197;50.164;8.012;2023-05-10T14:47:13;1.90;;;1.30;;
76373;SDS011;65197;50.164;8.012;2023-05-10T14:49:39;3.22;;;1.65;;
76373;SDS011;65197;50.164;8.012;2023-05-10T14:52:05;2.05;;;1.30;;
76373;SDS011;65197;50.164;8.012;2023-05-10T14:54:31;3.50;;;1.30;;
76373;SDS011;65197;50.164;8.012;2023-05-10T14:56:58;2.17;;;1.40;;
76373;SDS011;65197;50.164;8.012;2023-05-10T14:59:23;2.63;;;1.60;;
76373;SDS011;65197;50.164;8.012;2023-05-10T15:01:49;1.98;;;1.33;;
76373;SDS011;65197;50.164;8.012;2023-05-10T15:04:14;2.13;;;1.58;;
76373;SDS011;65197;50.164;8.012;2023-05-10T15:06:41;2.35;;;1.30;;
76373;SDS011;65197;50.164;8.012;2023-05-10T15:09:06;1.50;;;1.30;;
76373;SDS011;65197;50.164;8.012;2023-05-10T15:11:32;2.65;;;1.20;;
76373;SDS011;65197;50.164;8.012;2023-05-10T15:13:57;5.50;;;1.60;;
76373;SDS011;65197;50.164;8.012;2023-05-10T15:16:23;1.92;;;1.40;;
76373;SDS011;65197;50.164;8.012;2023-05-10T15:18:48;2.22;;;2.03;;
76373;SDS011;65197;50.164;8.012;2023-05-10T15:21:14;3.70;;;1.27;;
76373;SDS011;65197;50.164;8.012;2023-05-10T15:23:39;2.78;;;1.33;;
76373;SDS011;65197;50.164;8.012;2023-05-10T15:26:05;2.03;;;1.48;;